sensor_id;sensor_type;location;lat;lon;timestamp;temperature;humidity
18160;DHT22;9205;52.032;4.314;2024-03-08T00:00:49;4.70;1.00
18160;DHT22;9205;52.032;4.314;2024-03-08T00:03:17;4.70;1.00
18160;DHT22;9205;52.032;4.314;2024-03-08T00:05:44;4.70;1.00
18160;DHT22;9205;52.032;4.314;2024-03-08T00:08:11;4.60;1.00
18160;DHT22;9205;52.032;4.314;2024-03-08T00:10:39;4.50;1.00
18160;DHT22;9205;52.032;4.314;2024-03-08T00:13:06;4.60;1.00
18160;DHT22;9205;52.032;4.314;2024-03-08T00:15:33;4.50;1.00
18160;DHT22;9205;52.032;4.314;2024-03-08T00:18:03;4.60;1.00
18160;DHT22;9205;52.032;4.314;2024-03-08T00:20:30;4.50;1.00
18160;DHT22;9205;52.032;4.314;2024-03-08T00:22:57;4.50;1.00
18160;DHT22;9205;52.032;4.314;2024-03-08T00:25:25;4.50;1.00
18160;DHT22;9205;52.032;4.314;2024-03-08T00:27:53;4.40;1.00
18160;DHT22;9205;52.032;4.314;2024-03-08T00:30:21;4.40;1.00
18160;DHT22;9205;52.032;4.314;2024-03-08T00:32:50;4.50;1.00
18160;DHT22;9205;52.032;4.314;2024-03-08T00:35:19;4.40;1.00
18160;DHT22;9205;52.032;4.314;2024-03-08T00:37:46;4.40;1.00
18160;DHT22;9205;52.032;4.314;2024-03-08T00:40:14;4.50;1.00
18160;DHT22;9205;52.032;4.314;2024-03-08T00:42:41;4.50;1.00
18160;DHT22;9205;52.032;4.314;2024-03-08T00:45:10;4.60;1.00
18160;DHT22;9205;52.032;4.314;2024-03-08T00:47:37;4.40;1.00
18160;DHT22;9205;52.032;4.314;2024-03-08T00:50:05;4.40;1.00
18160;DHT22;9205;52.032;4.314;2024-03-08T00:52:35;4.50;1.00
18160;DHT22;9205;52.032;4.314;2024-03-08T00:55:04;4.50;1.00
18160;DHT22;9205;52.032;4.314;2024-03-08T00:57:31;4.50;1.00
18160;DHT22;9205;52.032;4.314;2024-03-08T00:59:59;4.40;1.00
18160;DHT22;9205;52.032;4.314;2024-03-08T01:02:26;4.50;1.00
18160;DHT22;9205;52.032;4.314;2024-03-08T01:04:54;4.40;1.00
18160;DHT22;9205;52.032;4.314;2024-03-08T01:07:22;4.50;1.00
18160;DHT22;9205;52.032;4.314;2024-03-08T01:09:50;4.30;1.00
18160;DHT22;9205;52.032;4.314;2024-03-08T01:12:18;4.30;1.00
18160;DHT22;9205;52.032;4.314;2024-03-08T01:14:45;4.30;1.00
18160;DHT22;9205;52.032;4.314;2024-03-08T01:17:13;4.30;1.00
18160;DHT22;9205;52.032;4.314;2024-03-08T01:19:40;4.30;1.00
18160;DHT22;9205;52.032;4.314;2024-03-08T01:22:10;4.40;1.00
18160;DHT22;9205;52.032;4.314;2024-03-08T01:24:37;4.30;99.90
18160;DHT22;9205;52.032;4.314;2024-03-08T01:27:06;4.20;99.90
18160;DHT22;9205;52.032;4.314;2024-03-08T01:29:35;4.30;99.90
18160;DHT22;9205;52.032;4.314;2024-03-08T01:32:02;4.30;99.90
18160;DHT22;9205;52.032;4.314;2024-03-08T01:34:29;4.20;99.90
18160;DHT22;9205;52.032;4.314;2024-03-08T01:36:57;4.20;99.90
18160;DHT22;9205;52.032;4.314;2024-03-08T01:39:25;4.30;99.90
18160;DHT22;9205;52.032;4.314;2024-03-08T01:41:52;4.20;99.90
18160;DHT22;9205;52.032;4.314;2024-03-08T01:44:21;4.20;99.90
18160;DHT22;9205;52.032;4.314;2024-03-08T01:46:49;4.10;99.90
18160;DHT22;9205;52.032;4.314;2024-03-08T01:49:18;4.10;99.90
18160;DHT22;9205;52.032;4.314;2024-03-08T01:51:48;4.20;99.90
18160;DHT22;9205;52.032;4.314;2024-03-08T01:54:17;4.20;99.90
18160;DHT22;9205;52.032;4.314;2024-03-08T01:56:46;4.20;99.90
18160;DHT22;9205;52.032;4.314;2024-03-08T01:59:14;4.10;99.90
18160;DHT22;9205;52.032;4.314;2024-03-08T02:01:44;4.20;99.90
18160;DHT22;9205;52.032;4.314;2024-03-08T02:04:11;4.00;99.90
18160;DHT22;9205;52.032;4.314;2024-03-08T02:06:38;4.20;99.90
18160;DHT22;9205;52.032;4.314;2024-03-08T02:09:06;4.00;99.90
18160;DHT22;9205;52.032;4.314;2024-03-08T02:11:34;4.10;99.90
18160;DHT22;9205;52.032;4.314;2024-03-08T02:14:01;4.00;75.90
18160;DHT22;9205;52.032;4.314;2024-03-08T02:16:29;4.10;94.70
18160;DHT22;9205;52.032;4.314;2024-03-08T02:18:58;3.90;1.20
18160;DHT22;9205;52.032;4.314;2024-03-08T02:21:27;3.90;1.00
18160;DHT22;9205;52.032;4.314;2024-03-08T02:23:55;4.00;1.00
18160;DHT22;9205;52.032;4.314;2024-03-08T02:26:22;3.80;1.00
18160;DHT22;9205;52.032;4.314;2024-03-08T02:28:50;4.00;1.00
18160;DHT22;9205;52.032;4.314;2024-03-08T02:31:17;3.90;1.00
18160;DHT22;9205;52.032;4.314;2024-03-08T02:33:44;4.00;1.00
18160;DHT22;9205;52.032;4.314;2024-03-08T02:36:13;3.80;1.00
18160;DHT22;9205;52.032;4.314;2024-03-08T02:38:43;3.90;1.00
18160;DHT22;9205;52.032;4.314;2024-03-08T02:41:10;3.90;1.00
18160;DHT22;9205;52.032;4.314;2024-03-08T02:43:38;3.80;1.00
18160;DHT22;9205;52.032;4.314;2024-03-08T02:46:05;3.80;1.00
18160;DHT22;9205;52.032;4.314;2024-03-08T02:48:32;3.80;1.00
18160;DHT22;9205;52.032;4.314;2024-03-08T02:50:59;3.80;1.00
18160;DHT22;9205;52.032;4.314;2024-03-08T02:53:27;3.70;1.00
18160;DHT22;9205;52.032;4.314;2024-03-08T02:55:56;3.70;1.00
18160;DHT22;9205;52.032;4.314;2024-03-08T02:58:23;3.70;1.00
18160;DHT22;9205;52.032;4.314;2024-03-08T03:00:51;3.80;1.00
18160;DHT22;9205;52.032;4.314;2024-03-08T03:03:18;3.70;1.00
18160;DHT22;9205;52.032;4.314;2024-03-08T03:05:45;3.70;1.00
18160;DHT22;9205;52.032;4.314;2024-03-08T03:08:12;3.60;1.00
18160;DHT22;9205;52.032;4.314;2024-03-08T03:10:41;3.60;1.00
18160;DHT22;9205;52.032;4.314;2024-03-08T03:13:09;3.60;1.00
18160;DHT22;9205;52.032;4.314;2024-03-08T03:15:38;3.60;1.00
18160;DHT22;9205;52.032;4.314;2024-03-08T03:18:07;3.70;1.00
18160;DHT22;9205;52.032;4.314;2024-03-08T03:20:34;3.70;1.00
18160;DHT22;9205;52.032;4.314;2024-03-08T03:23:06;3.60;1.00
18160;DHT22;9205;52.032;4.314;2024-03-08T03:25:34;3.60;1.00
18160;DHT22;9205;52.032;4.314;2024-03-08T03:28:04;3.50;1.00
18160;DHT22;9205;52.032;4.314;2024-03-08T03:30:35;3.50;1.00
18160;DHT22;9205;52.032;4.314;2024-03-08T03:33:03;3.50;1.00
18160;DHT22;9205;52.032;4.314;2024-03-08T03:35:32;3.60;1.00
18160;DHT22;9205;52.032;4.314;2024-03-08T03:38:01;3.40;1.00
18160;DHT22;9205;52.032;4.314;2024-03-08T03:40:32;3.40;1.00
18160;DHT22;9205;52.032;4.314;2024-03-08T03:43:00;3.50;1.00
18160;DHT22;9205;52.032;4.314;2024-03-08T03:45:28;3.50;1.00
18160;DHT22;9205;52.032;4.314;2024-03-08T03:48:02;3.30;1.00
18160;DHT22;9205;52.032;4.314;2024-03-08T03:50:30;3.30;1.00
18160;DHT22;9205;52.032;4.314;2024-03-08T03:53:00;3.30;1.00
18160;DHT22;9205;52.032;4.314;2024-03-08T03:55:27;3.30;1.00
18160;DHT22;9205;52.032;4.314;2024-03-08T03:57:55;3.30;1.00
18160;DHT22;9205;52.032;4.314;2024-03-08T04:00:24;3.40;1.00
18160;DHT22;9205;52.032;4.314;2024-03-08T04:02:52;3.30;1.00
18160;DHT22;9205;52.032;4.314;2024-03-08T04:05:21;3.30;1.00
18160;DHT22;9205;52.032;4.314;2024-03-08T04:07:49;3.20;1.00
18160;DHT22;9205;52.032;4.314;2024-03-08T04:10:16;3.30;1.00
18160;DHT22;9205;52.032;4.314;2024-03-08T04:12:43;3.10;1.00
18160;DHT22;9205;52.032;4.314;2024-03-08T04:15:14;3.20;1.00
18160;DHT22;9205;52.032;4.314;2024-03-08T04:17:41;3.20;1.00
18160;DHT22;9205;52.032;4.314;2024-03-08T04:20:11;3.10;1.00
18160;DHT22;9205;52.032;4.314;2024-03-08T04:22:41;3.00;1.00
18160;DHT22;9205;52.032;4.314;2024-03-08T04:25:09;3.10;1.00
18160;DHT22;9205;52.032;4.314;2024-03-08T04:27:37;3.00;1.00
18160;DHT22;9205;52.032;4.314;2024-03-08T04:30:07;3.00;1.00
18160;DHT22;9205;52.032;4.314;2024-03-08T04:32:35;3.00;1.00
18160;DHT22;9205;52.032;4.314;2024-03-08T04:35:03;3.00;1.00
18160;DHT22;9205;52.032;4.314;2024-03-08T04:37:31;3.00;1.00
18160;DHT22;9205;52.032;4.314;2024-03-08T04:40:00;3.10;1.00
18160;DHT22;9205;52.032;4.314;2024-03-08T04:42:28;3.00;1.00
18160;DHT22;9205;52.032;4.314;2024-03-08T04:44:55;3.10;1.00
18160;DHT22;9205;52.032;4.314;2024-03-08T04:47:23;3.00;1.00
18160;DHT22;9205;52.032;4.314;2024-03-08T04:49:50;3.00;1.00
18160;DHT22;9205;52.032;4.314;2024-03-08T04:52:17;3.10;1.00
18160;DHT22;9205;52.032;4.314;2024-03-08T04:54:45;3.10;1.00
18160;DHT22;9205;52.032;4.314;2024-03-08T04:57:13;3.00;1.00
18160;DHT22;9205;52.032;4.314;2024-03-08T04:59:43;3.00;1.00
18160;DHT22;9205;52.032;4.314;2024-03-08T05:02:11;2.90;1.00
18160;DHT22;9205;52.032;4.314;2024-03-08T05:04:38;3.00;1.00
18160;DHT22;9205;52.032;4.314;2024-03-08T05:07:05;2.90;1.00
18160;DHT22;9205;52.032;4.314;2024-03-08T05:09:33;2.90;1.00
18160;DHT22;9205;52.032;4.314;2024-03-08T05:12:01;2.90;1.00
18160;DHT22;9205;52.032;4.314;2024-03-08T05:14:30;2.90;1.00
18160;DHT22;9205;52.032;4.314;2024-03-08T05:16:57;2.80;1.00
18160;DHT22;9205;52.032;4.314;2024-03-08T05:19:26;2.80;1.00
18160;DHT22;9205;52.032;4.314;2024-03-08T05:21:55;2.90;1.00
18160;DHT22;9205;52.032;4.314;2024-03-08T05:24:23;2.70;1.00
18160;DHT22;9205;52.032;4.314;2024-03-08T05:26:50;2.90;1.00
18160;DHT22;9205;52.032;4.314;2024-03-08T05:29:17;2.90;1.00
18160;DHT22;9205;52.032;4.314;2024-03-08T05:31:49;2.80;1.00
18160;DHT22;9205;52.032;4.314;2024-03-08T05:34:18;2.80;1.00
18160;DHT22;9205;52.032;4.314;2024-03-08T05:36:47;2.90;1.00
18160;DHT22;9205;52.032;4.314;2024-03-08T05:39:16;2.80;1.00
18160;DHT22;9205;52.032;4.314;2024-03-08T05:41:44;2.80;1.00
18160;DHT22;9205;52.032;4.314;2024-03-08T05:44:11;2.80;1.00
18160;DHT22;9205;52.032;4.314;2024-03-08T05:46:39;2.70;99.90
18160;DHT22;9205;52.032;4.314;2024-03-08T05:49:08;2.80;99.90
18160;DHT22;9205;52.032;4.314;2024-03-08T05:51:38;2.70;99.90
18160;DHT22;9205;52.032;4.314;2024-03-08T05:54:07;2.70;99.90
18160;DHT22;9205;52.032;4.314;2024-03-08T05:56:36;2.80;99.90
18160;DHT22;9205;52.032;4.314;2024-03-08T05:59:04;2.70;99.90
18160;DHT22;9205;52.032;4.314;2024-03-08T06:01:31;2.70;99.90
18160;DHT22;9205;52.032;4.314;2024-03-08T06:04:02;2.70;99.90
18160;DHT22;9205;52.032;4.314;2024-03-08T06:06:31;2.70;99.90
18160;DHT22;9205;52.032;4.314;2024-03-08T06:08:59;2.60;99.90
18160;DHT22;9205;52.032;4.314;2024-03-08T06:11:26;2.70;99.90
18160;DHT22;9205;52.032;4.314;2024-03-08T06:13:56;2.70;99.90
18160;DHT22;9205;52.032;4.314;2024-03-08T06:16:25;2.70;99.90
18160;DHT22;9205;52.032;4.314;2024-03-08T06:18:55;2.70;99.90
18160;DHT22;9205;52.032;4.314;2024-03-08T06:21:23;2.60;99.90
18160;DHT22;9205;52.032;4.314;2024-03-08T06:23:54;2.60;99.90
18160;DHT22;9205;52.032;4.314;2024-03-08T06:26:23;2.70;99.90
18160;DHT22;9205;52.032;4.314;2024-03-08T06:28:53;2.60;99.90
18160;DHT22;9205;52.032;4.314;2024-03-08T06:31:21;2.60;99.90
18160;DHT22;9205;52.032;4.314;2024-03-08T06:33:48;2.60;99.90
18160;DHT22;9205;52.032;4.314;2024-03-08T06:36:16;2.70;99.90
18160;DHT22;9205;52.032;4.314;2024-03-08T06:38:45;2.60;99.90
18160;DHT22;9205;52.032;4.314;2024-03-08T06:41:13;2.80;99.90
18160;DHT22;9205;52.032;4.314;2024-03-08T06:43:42;2.70;99.90
18160;DHT22;9205;52.032;4.314;2024-03-08T06:46:09;2.70;99.90
18160;DHT22;9205;52.032;4.314;2024-03-08T06:48:38;2.70;99.90
18160;DHT22;9205;52.032;4.314;2024-03-08T06:51:06;2.70;99.90
18160;DHT22;9205;52.032;4.314;2024-03-08T06:53:33;2.60;99.90
18160;DHT22;9205;52.032;4.314;2024-03-08T06:56:01;2.60;99.90
18160;DHT22;9205;52.032;4.314;2024-03-08T06:58:30;2.60;99.90
18160;DHT22;9205;52.032;4.314;2024-03-08T07:00:58;2.80;99.90
18160;DHT22;9205;52.032;4.314;2024-03-08T07:03:26;2.70;99.90
18160;DHT22;9205;52.032;4.314;2024-03-08T07:05:55;2.80;99.90
18160;DHT22;9205;52.032;4.314;2024-03-08T07:08:23;2.80;99.90
18160;DHT22;9205;52.032;4.314;2024-03-08T07:10:52;2.80;99.90
18160;DHT22;9205;52.032;4.314;2024-03-08T07:13:20;2.80;99.90
18160;DHT22;9205;52.032;4.314;2024-03-08T07:15:48;2.80;99.90
18160;DHT22;9205;52.032;4.314;2024-03-08T07:18:18;2.80;99.90
18160;DHT22;9205;52.032;4.314;2024-03-08T07:20:45;2.70;99.90
18160;DHT22;9205;52.032;4.314;2024-03-08T07:23:12;2.80;99.90
18160;DHT22;9205;52.032;4.314;2024-03-08T07:26:00;2.90;99.90
18160;DHT22;9205;52.032;4.314;2024-03-08T07:28:27;2.80;99.90
18160;DHT22;9205;52.032;4.314;2024-03-08T07:30:57;2.90;99.90
18160;DHT22;9205;52.032;4.314;2024-03-08T07:33:42;2.90;99.90
18160;DHT22;9205;52.032;4.314;2024-03-08T07:36:10;2.80;99.90
18160;DHT22;9205;52.032;4.314;2024-03-08T07:38:37;3.00;99.90
18160;DHT22;9205;52.032;4.314;2024-03-08T07:41:04;3.00;99.90
18160;DHT22;9205;52.032;4.314;2024-03-08T07:43:32;3.00;99.90
18160;DHT22;9205;52.032;4.314;2024-03-08T07:46:00;3.00;99.90
18160;DHT22;9205;52.032;4.314;2024-03-08T07:48:28;3.10;99.90
18160;DHT22;9205;52.032;4.314;2024-03-08T07:50:56;3.10;99.90
18160;DHT22;9205;52.032;4.314;2024-03-08T07:53:23;3.10;90.00
18160;DHT22;9205;52.032;4.314;2024-03-08T07:55:51;3.30;61.80
18160;DHT22;9205;52.032;4.314;2024-03-08T07:58:18;3.20;40.40
18160;DHT22;9205;52.032;4.314;2024-03-08T08:00:45;3.30;6.60
18160;DHT22;9205;52.032;4.314;2024-03-08T08:03:14;3.40;1.00
18160;DHT22;9205;52.032;4.314;2024-03-08T08:05:41;3.40;1.00
18160;DHT22;9205;52.032;4.314;2024-03-08T08:08:09;3.50;1.00
18160;DHT22;9205;52.032;4.314;2024-03-08T08:10:36;3.60;1.00
18160;DHT22;9205;52.032;4.314;2024-03-08T08:13:03;3.60;1.00
18160;DHT22;9205;52.032;4.314;2024-03-08T08:15:31;3.70;1.00
18160;DHT22;9205;52.032;4.314;2024-03-08T08:18:00;3.70;1.00
18160;DHT22;9205;52.032;4.314;2024-03-08T08:20:30;3.80;1.00
18160;DHT22;9205;52.032;4.314;2024-03-08T08:22:57;3.90;1.00
18160;DHT22;9205;52.032;4.314;2024-03-08T08:25:25;3.90;1.00
18160;DHT22;9205;52.032;4.314;2024-03-08T08:27:52;4.00;1.00
18160;DHT22;9205;52.032;4.314;2024-03-08T08:30:20;4.10;1.00
18160;DHT22;9205;52.032;4.314;2024-03-08T08:32:48;4.20;1.00
18160;DHT22;9205;52.032;4.314;2024-03-08T08:35:16;4.40;1.00
18160;DHT22;9205;52.032;4.314;2024-03-08T08:37:46;4.40;1.00
18160;DHT22;9205;52.032;4.314;2024-03-08T08:40:14;4.60;1.00
18160;DHT22;9205;52.032;4.314;2024-03-08T08:42:43;4.60;99.90
18160;DHT22;9205;52.032;4.314;2024-03-08T08:45:13;4.70;99.90
18160;DHT22;9205;52.032;4.314;2024-03-08T08:47:42;4.80;99.90
18160;DHT22;9205;52.032;4.314;2024-03-08T08:50:11;4.90;99.90
18160;DHT22;9205;52.032;4.314;2024-03-08T08:52:38;4.90;99.90
18160;DHT22;9205;52.032;4.314;2024-03-08T08:55:07;5.00;99.90
18160;DHT22;9205;52.032;4.314;2024-03-08T08:57:37;5.10;97.30
18160;DHT22;9205;52.032;4.314;2024-03-08T09:00:06;5.20;29.60
18160;DHT22;9205;52.032;4.314;2024-03-08T09:02:40;5.20;1.00
18160;DHT22;9205;52.032;4.314;2024-03-08T09:05:07;5.30;1.00
18160;DHT22;9205;52.032;4.314;2024-03-08T09:07:35;5.40;1.00
18160;DHT22;9205;52.032;4.314;2024-03-08T09:10:03;5.40;1.00
18160;DHT22;9205;52.032;4.314;2024-03-08T09:12:32;5.40;1.00
18160;DHT22;9205;52.032;4.314;2024-03-08T09:15:00;5.40;1.00
18160;DHT22;9205;52.032;4.314;2024-03-08T09:17:27;5.50;1.00
18160;DHT22;9205;52.032;4.314;2024-03-08T09:19:55;5.60;1.00
18160;DHT22;9205;52.032;4.314;2024-03-08T09:22:23;5.50;1.00
18160;DHT22;9205;52.032;4.314;2024-03-08T09:24:50;5.50;1.00
18160;DHT22;9205;52.032;4.314;2024-03-08T09:27:18;5.50;1.00
18160;DHT22;9205;52.032;4.314;2024-03-08T09:29:46;5.60;1.00
18160;DHT22;9205;52.032;4.314;2024-03-08T09:32:14;5.70;1.00
18160;DHT22;9205;52.032;4.314;2024-03-08T09:34:42;5.80;1.00
18160;DHT22;9205;52.032;4.314;2024-03-08T09:37:10;5.90;1.00
18160;DHT22;9205;52.032;4.314;2024-03-08T09:39:37;5.90;1.00
18160;DHT22;9205;52.032;4.314;2024-03-08T09:42:05;5.90;1.00
18160;DHT22;9205;52.032;4.314;2024-03-08T09:44:33;6.00;1.00
18160;DHT22;9205;52.032;4.314;2024-03-08T09:47:03;6.00;99.90
18160;DHT22;9205;52.032;4.314;2024-03-08T09:49:32;6.00;99.90
18160;DHT22;9205;52.032;4.314;2024-03-08T09:51:59;6.00;99.90
18160;DHT22;9205;52.032;4.314;2024-03-08T09:54:30;6.10;99.90
18160;DHT22;9205;52.032;4.314;2024-03-08T09:56:57;6.10;99.90
18160;DHT22;9205;52.032;4.314;2024-03-08T09:59:25;6.10;99.90
18160;DHT22;9205;52.032;4.314;2024-03-08T10:02:20;6.20;99.90
18160;DHT22;9205;52.032;4.314;2024-03-08T10:04:48;6.30;99.90
18160;DHT22;9205;52.032;4.314;2024-03-08T10:07:15;6.40;99.90
18160;DHT22;9205;52.032;4.314;2024-03-08T10:09:42;6.50;99.90
18160;DHT22;9205;52.032;4.314;2024-03-08T10:12:15;6.50;99.90
18160;DHT22;9205;52.032;4.314;2024-03-08T10:14:45;6.50;99.90
18160;DHT22;9205;52.032;4.314;2024-03-08T10:17:13;6.60;99.90
18160;DHT22;9205;52.032;4.314;2024-03-08T10:19:49;6.60;98.30
18160;DHT22;9205;52.032;4.314;2024-03-08T10:22:18;6.70;91.80
18160;DHT22;9205;52.032;4.314;2024-03-08T10:24:45;6.80;64.30
18160;DHT22;9205;52.032;4.314;2024-03-08T10:27:13;6.80;1.00
18160;DHT22;9205;52.032;4.314;2024-03-08T10:29:41;6.80;1.00
18160;DHT22;9205;52.032;4.314;2024-03-08T10:32:11;6.90;1.00
18160;DHT22;9205;52.032;4.314;2024-03-08T10:34:38;7.00;1.00
18160;DHT22;9205;52.032;4.314;2024-03-08T10:37:14;7.10;1.00
18160;DHT22;9205;52.032;4.314;2024-03-08T10:39:48;7.20;1.00
18160;DHT22;9205;52.032;4.314;2024-03-08T10:42:28;7.30;1.00
18160;DHT22;9205;52.032;4.314;2024-03-08T10:45:05;7.30;1.00
18160;DHT22;9205;52.032;4.314;2024-03-08T10:47:41;7.50;1.00
18160;DHT22;9205;52.032;4.314;2024-03-08T10:50:15;7.60;1.00
18160;DHT22;9205;52.032;4.314;2024-03-08T10:52:49;7.70;1.00
18160;DHT22;9205;52.032;4.314;2024-03-08T10:55:18;7.80;1.00
18160;DHT22;9205;52.032;4.314;2024-03-08T10:57:46;7.90;1.00
18160;DHT22;9205;52.032;4.314;2024-03-08T11:00:14;7.90;1.00
18160;DHT22;9205;52.032;4.314;2024-03-08T11:02:44;7.90;1.00
18160;DHT22;9205;52.032;4.314;2024-03-08T11:05:21;7.90;1.00
18160;DHT22;9205;52.032;4.314;2024-03-08T11:08:02;7.80;1.00
18160;DHT22;9205;52.032;4.314;2024-03-08T11:10:30;8.00;1.00
18160;DHT22;9205;52.032;4.314;2024-03-08T11:12:58;8.10;1.00
18160;DHT22;9205;52.032;4.314;2024-03-08T11:15:26;8.20;1.00
18160;DHT22;9205;52.032;4.314;2024-03-08T11:17:59;8.30;1.00
18160;DHT22;9205;52.032;4.314;2024-03-08T11:20:27;8.30;1.00
18160;DHT22;9205;52.032;4.314;2024-03-08T11:23:03;8.40;1.00
18160;DHT22;9205;52.032;4.314;2024-03-08T11:25:36;8.50;99.90
18160;DHT22;9205;52.032;4.314;2024-03-08T11:28:12;8.70;99.90
18160;DHT22;9205;52.032;4.314;2024-03-08T11:30:43;8.60;99.90
18160;DHT22;9205;52.032;4.314;2024-03-08T11:33:13;8.70;99.90
18160;DHT22;9205;52.032;4.314;2024-03-08T11:35:42;8.70;99.90
18160;DHT22;9205;52.032;4.314;2024-03-08T11:38:13;8.80;99.90
18160;DHT22;9205;52.032;4.314;2024-03-08T11:40:42;8.70;23.50
18160;DHT22;9205;52.032;4.314;2024-03-08T11:43:09;8.80;1.00
18160;DHT22;9205;52.032;4.314;2024-03-08T11:45:37;8.90;1.00
18160;DHT22;9205;52.032;4.314;2024-03-08T11:48:07;9.00;1.00
18160;DHT22;9205;52.032;4.314;2024-03-08T11:50:34;9.10;1.00
18160;DHT22;9205;52.032;4.314;2024-03-08T11:53:02;9.00;1.00
18160;DHT22;9205;52.032;4.314;2024-03-08T11:55:33;9.10;1.00
18160;DHT22;9205;52.032;4.314;2024-03-08T11:58:02;9.20;1.00
18160;DHT22;9205;52.032;4.314;2024-03-08T12:00:31;9.30;1.00
18160;DHT22;9205;52.032;4.314;2024-03-08T12:03:05;9.20;1.00
18160;DHT22;9205;52.032;4.314;2024-03-08T12:05:35;9.20;1.00
18160;DHT22;9205;52.032;4.314;2024-03-08T12:08:04;9.30;1.00
18160;DHT22;9205;52.032;4.314;2024-03-08T12:10:36;9.30;1.00
18160;DHT22;9205;52.032;4.314;2024-03-08T12:13:04;9.30;1.00
18160;DHT22;9205;52.032;4.314;2024-03-08T12:15:39;9.40;1.00
18160;DHT22;9205;52.032;4.314;2024-03-08T12:18:09;9.50;1.00
18160;DHT22;9205;52.032;4.314;2024-03-08T12:20:38;9.50;1.00
18160;DHT22;9205;52.032;4.314;2024-03-08T12:23:14;9.50;1.00
18160;DHT22;9205;52.032;4.314;2024-03-08T12:25:43;9.40;1.00
18160;DHT22;9205;52.032;4.314;2024-03-08T12:28:12;9.40;1.00
18160;DHT22;9205;52.032;4.314;2024-03-08T12:30:46;9.40;1.00
18160;DHT22;9205;52.032;4.314;2024-03-08T12:33:15;9.60;1.00
18160;DHT22;9205;52.032;4.314;2024-03-08T12:35:50;9.40;1.00
18160;DHT22;9205;52.032;4.314;2024-03-08T12:38:21;9.40;1.00
18160;DHT22;9205;52.032;4.314;2024-03-08T12:40:57;9.70;1.00
18160;DHT22;9205;52.032;4.314;2024-03-08T12:43:25;9.80;1.00
18160;DHT22;9205;52.032;4.314;2024-03-08T12:45:56;9.80;1.00
18160;DHT22;9205;52.032;4.314;2024-03-08T12:48:23;9.70;1.00
18160;DHT22;9205;52.032;4.314;2024-03-08T12:50:51;9.80;1.00
18160;DHT22;9205;52.032;4.314;2024-03-08T12:53:19;9.60;1.00
18160;DHT22;9205;52.032;4.314;2024-03-08T12:55:49;9.60;1.00
18160;DHT22;9205;52.032;4.314;2024-03-08T12:58:18;9.70;1.00
18160;DHT22;9205;52.032;4.314;2024-03-08T13:00:47;9.80;1.00
18160;DHT22;9205;52.032;4.314;2024-03-08T13:03:15;10.00;1.00
18160;DHT22;9205;52.032;4.314;2024-03-08T13:05:42;10.00;1.00
18160;DHT22;9205;52.032;4.314;2024-03-08T13:08:11;9.90;1.00
18160;DHT22;9205;52.032;4.314;2024-03-08T13:10:39;9.80;1.00
18160;DHT22;9205;52.032;4.314;2024-03-08T13:13:09;9.80;1.00
18160;DHT22;9205;52.032;4.314;2024-03-08T13:15:40;10.00;1.00
18160;DHT22;9205;52.032;4.314;2024-03-08T13:18:08;10.10;1.00
18160;DHT22;9205;52.032;4.314;2024-03-08T13:20:36;10.10;1.00
18160;DHT22;9205;52.032;4.314;2024-03-08T13:23:04;10.00;1.00
18160;DHT22;9205;52.032;4.314;2024-03-08T13:25:32;9.90;99.90
18160;DHT22;9205;52.032;4.314;2024-03-08T13:28:00;9.90;99.90
18160;DHT22;9205;52.032;4.314;2024-03-08T13:30:28;9.90;99.90
18160;DHT22;9205;52.032;4.314;2024-03-08T13:32:57;10.00;99.90
18160;DHT22;9205;52.032;4.314;2024-03-08T13:35:25;10.10;99.90
18160;DHT22;9205;52.032;4.314;2024-03-08T13:37:55;10.20;99.90
18160;DHT22;9205;52.032;4.314;2024-03-08T13:40:23;10.10;99.90
18160;DHT22;9205;52.032;4.314;2024-03-08T13:42:50;10.20;99.90
18160;DHT22;9205;52.032;4.314;2024-03-08T13:45:18;10.40;1.00
18160;DHT22;9205;52.032;4.314;2024-03-08T13:47:48;10.40;99.90
18160;DHT22;9205;52.032;4.314;2024-03-08T13:50:18;10.40;99.90
18160;DHT22;9205;52.032;4.314;2024-03-08T13:52:47;10.40;99.90
18160;DHT22;9205;52.032;4.314;2024-03-08T13:55:17;10.40;99.90
18160;DHT22;9205;52.032;4.314;2024-03-08T13:57:45;10.30;99.90
18160;DHT22;9205;52.032;4.314;2024-03-08T14:00:13;10.40;99.90
18160;DHT22;9205;52.032;4.314;2024-03-08T14:02:41;10.60;99.90
18160;DHT22;9205;52.032;4.314;2024-03-08T14:05:08;10.50;99.90
18160;DHT22;9205;52.032;4.314;2024-03-08T14:07:38;10.50;99.90
18160;DHT22;9205;52.032;4.314;2024-03-08T14:10:07;10.60;99.90
18160;DHT22;9205;52.032;4.314;2024-03-08T14:12:35;10.60;99.90
18160;DHT22;9205;52.032;4.314;2024-03-08T14:15:04;10.60;99.90
18160;DHT22;9205;52.032;4.314;2024-03-08T14:17:32;10.50;99.90
18160;DHT22;9205;52.032;4.314;2024-03-08T14:19:59;10.50;99.90
18160;DHT22;9205;52.032;4.314;2024-03-08T14:22:27;10.60;99.90
18160;DHT22;9205;52.032;4.314;2024-03-08T14:24:58;10.60;99.90
18160;DHT22;9205;52.032;4.314;2024-03-08T14:27:25;10.60;99.90
18160;DHT22;9205;52.032;4.314;2024-03-08T14:29:54;10.60;99.90
18160;DHT22;9205;52.032;4.314;2024-03-08T14:32:21;10.60;99.90
18160;DHT22;9205;52.032;4.314;2024-03-08T14:34:49;10.60;99.90
18160;DHT22;9205;52.032;4.314;2024-03-08T14:37:16;10.70;99.60
18160;DHT22;9205;52.032;4.314;2024-03-08T14:39:49;10.60;41.70
18160;DHT22;9205;52.032;4.314;2024-03-08T14:42:19;10.50;5.70
18160;DHT22;9205;52.032;4.314;2024-03-08T14:44:47;10.40;1.00
18160;DHT22;9205;52.032;4.314;2024-03-08T14:47:16;10.40;1.00
18160;DHT22;9205;52.032;4.314;2024-03-08T14:49:44;10.70;38.10
18160;DHT22;9205;52.032;4.314;2024-03-08T14:52:14;10.80;49.20
18160;DHT22;9205;52.032;4.314;2024-03-08T14:54:53;10.70;51.80
18160;DHT22;9205;52.032;4.314;2024-03-08T14:57:23;10.60;19.10
18160;DHT22;9205;52.032;4.314;2024-03-08T14:59:50;10.60;35.70
18160;DHT22;9205;52.032;4.314;2024-03-08T15:02:17;10.70;42.50
18160;DHT22;9205;52.032;4.314;2024-03-08T15:04:47;10.80;51.00
18160;DHT22;9205;52.032;4.314;2024-03-08T15:07:22;10.60;10.50
18160;DHT22;9205;52.032;4.314;2024-03-08T15:09:51;10.60;14.50
18160;DHT22;9205;52.032;4.314;2024-03-08T15:12:18;10.40;1.00
18160;DHT22;9205;52.032;4.314;2024-03-08T15:14:47;10.30;1.00
18160;DHT22;9205;52.032;4.314;2024-03-08T15:17:17;10.50;7.20
18160;DHT22;9205;52.032;4.314;2024-03-08T15:19:47;10.40;6.60
18160;DHT22;9205;52.032;4.314;2024-03-08T15:22:15;10.40;25.10
18160;DHT22;9205;52.032;4.314;2024-03-08T15:24:43;10.30;11.80
18160;DHT22;9205;52.032;4.314;2024-03-08T15:27:11;10.30;60.90
18160;DHT22;9205;52.032;4.314;2024-03-08T15:29:38;10.30;63.80
18160;DHT22;9205;52.032;4.314;2024-03-08T15:32:07;10.30;86.20
18160;DHT22;9205;52.032;4.314;2024-03-08T15:34:35;10.20;96.90
18160;DHT22;9205;52.032;4.314;2024-03-08T15:37:03;10.20;99.90
18160;DHT22;9205;52.032;4.314;2024-03-08T15:39:31;10.10;99.90
18160;DHT22;9205;52.032;4.314;2024-03-08T15:41:59;10.00;96.30
18160;DHT22;9205;52.032;4.314;2024-03-08T15:44:26;10.00;94.20
18160;DHT22;9205;52.032;4.314;2024-03-08T15:46:54;10.00;99.90
18160;DHT22;9205;52.032;4.314;2024-03-08T15:49:23;10.10;99.90
18160;DHT22;9205;52.032;4.314;2024-03-08T15:51:52;10.00;99.90
18160;DHT22;9205;52.032;4.314;2024-03-08T15:54:19;10.00;99.90
18160;DHT22;9205;52.032;4.314;2024-03-08T15:56:47;10.00;99.90
18160;DHT22;9205;52.032;4.314;2024-03-08T15:59:14;10.00;99.90
18160;DHT22;9205;52.032;4.314;2024-03-08T16:01:42;10.00;99.90
18160;DHT22;9205;52.032;4.314;2024-03-08T16:04:14;9.90;99.90
18160;DHT22;9205;52.032;4.314;2024-03-08T16:06:43;10.00;99.90
18160;DHT22;9205;52.032;4.314;2024-03-08T16:09:10;10.00;99.90
18160;DHT22;9205;52.032;4.314;2024-03-08T16:11:41;9.90;99.90
18160;DHT22;9205;52.032;4.314;2024-03-08T16:14:09;9.90;99.90
18160;DHT22;9205;52.032;4.314;2024-03-08T16:16:37;9.90;99.90